Terminal Aerodrome Forecast
Issued by NWS Wichita, KS

Home | Current Version | Previous Version | Graphics & Text | Print | Product List | Glossary On
Versions: 1 2 3 4 5 6 7 8 9 10 11 12
000
FTUS43 KICT 081722
TAFICT
TAF
KICT 081722Z 0818/0918 VRB04KT P6SM SCT140
     FM082000 33010KT P6SM FEW180
     FM090100 32004KT P6SM FEW250
     FM091100 34008KT P6SM FEW250=

USA.gov is the U.S. government's official web portal to all federal, state and local government web resources and services.